sensor_id;sensor_type;location;lat;lon;timestamp;P1;durP1;ratioP1;P2;durP2;ratioP2
1020;SDS011;499;42.648;23.270;2022-10-16T00:01:07;1.00;;;0.90;;
1020;SDS011;499;42.648;23.270;2022-10-16T00:03:36;1.77;;;1.20;;
1020;SDS011;499;42.648;23.270;2022-10-16T00:06:03;1.10;;;0.70;;
1020;SDS011;499;42.648;23.270;2022-10-16T00:08:31;1.00;;;0.80;;
1020;SDS011;499;42.648;23.270;2022-10-16T00:11:01;1.73;;;1.47;;
1020;SDS011;499;42.648;23.270;2022-10-16T00:13:30;1.10;;;1.00;;
1020;SDS011;499;42.648;23.270;2022-10-16T00:15:58;0.90;;;0.80;;
1020;SDS011;499;42.648;23.270;2022-10-16T00:18:27;0.90;;;0.80;;
1020;SDS011;499;42.648;23.270;2022-10-16T00:20:55;0.90;;;0.70;;
1020;SDS011;499;42.648;23.270;2022-10-16T00:23:28;1.33;;;1.13;;
1020;SDS011;499;42.648;23.270;2022-10-16T00:25:56;0.90;;;0.70;;
1020;SDS011;499;42.648;23.270;2022-10-16T00:28:25;1.03;;;0.93;;
1020;SDS011;499;42.648;23.270;2022-10-16T00:30:53;0.80;;;0.70;;
1020;SDS011;499;42.648;23.270;2022-10-16T00:33:20;1.37;;;1.27;;
1020;SDS011;499;42.648;23.270;2022-10-16T00:35:47;1.40;;;1.17;;
1020;SDS011;499;42.648;23.270;2022-10-16T00:38:15;1.63;;;1.43;;
1020;SDS011;499;42.648;23.270;2022-10-16T00:40:42;1.37;;;1.27;;
1020;SDS011;499;42.648;23.270;2022-10-16T00:43:14;1.43;;;1.23;;
1020;SDS011;499;42.648;23.270;2022-10-16T00:45:57;1.10;;;1.00;;
1020;SDS011;499;42.648;23.270;2022-10-16T00:48:25;1.10;;;1.00;;
1020;SDS011;499;42.648;23.270;2022-10-16T00:50:52;1.40;;;1.30;;
1020;SDS011;499;42.648;23.270;2022-10-16T00:53:20;0.80;;;0.70;;
1020;SDS011;499;42.648;23.270;2022-10-16T00:55:48;0.80;;;0.70;;
1020;SDS011;499;42.648;23.270;2022-10-16T00:58:15;1.10;;;1.00;;
1020;SDS011;499;42.648;23.270;2022-10-16T01:00:43;1.03;;;0.93;;
1020;SDS011;499;42.648;23.270;2022-10-16T01:03:24;0.90;;;0.70;;
1020;SDS011;499;42.648;23.270;2022-10-16T01:05:55;1.20;;;1.00;;
1020;SDS011;499;42.648;23.270;2022-10-16T01:08:34;1.47;;;1.37;;
1020;SDS011;499;42.648;23.270;2022-10-16T01:11:11;1.00;;;0.70;;
1020;SDS011;499;42.648;23.270;2022-10-16T01:13:46;0.90;;;0.90;;
1020;SDS011;499;42.648;23.270;2022-10-16T01:16:17;1.57;;;1.47;;
1020;SDS011;499;42.648;23.270;2022-10-16T01:18:52;0.93;;;0.83;;
1020;SDS011;499;42.648;23.270;2022-10-16T01:21:24;1.20;;;1.10;;
1020;SDS011;499;42.648;23.270;2022-10-16T01:23:57;0.80;;;0.80;;
1020;SDS011;499;42.648;23.270;2022-10-16T01:26:35;1.43;;;1.23;;
1020;SDS011;499;42.648;23.270;2022-10-16T01:29:13;1.30;;;1.07;;
1020;SDS011;499;42.648;23.270;2022-10-16T01:31:46;1.13;;;1.03;;
1020;SDS011;499;42.648;23.270;2022-10-16T01:34:19;1.10;;;1.00;;
1020;SDS011;499;42.648;23.270;2022-10-16T01:36:52;1.33;;;1.10;;
1020;SDS011;499;42.648;23.270;2022-10-16T01:39:24;1.10;;;1.00;;
1020;SDS011;499;42.648;23.270;2022-10-16T01:41:56;1.53;;;1.43;;
1020;SDS011;499;42.648;23.270;2022-10-16T01:44:31;1.03;;;0.90;;
1020;SDS011;499;42.648;23.270;2022-10-16T01:46:59;0.80;;;0.70;;
1020;SDS011;499;42.648;23.270;2022-10-16T01:49:28;1.20;;;1.10;;
1020;SDS011;499;42.648;23.270;2022-10-16T01:51:59;1.23;;;1.13;;
1020;SDS011;499;42.648;23.270;2022-10-16T01:54:38;1.53;;;1.43;;
1020;SDS011;499;42.648;23.270;2022-10-16T01:57:09;0.80;;;0.70;;
1020;SDS011;499;42.648;23.270;2022-10-16T01:59:40;1.27;;;1.17;;
1020;SDS011;499;42.648;23.270;2022-10-16T02:02:11;0.90;;;0.80;;
1020;SDS011;499;42.648;23.270;2022-10-16T02:04:42;0.93;;;0.70;;
1020;SDS011;499;42.648;23.270;2022-10-16T02:07:12;1.03;;;0.93;;
1020;SDS011;499;42.648;23.270;2022-10-16T02:09:39;0.80;;;0.70;;
1020;SDS011;499;42.648;23.270;2022-10-16T02:12:08;2.50;;;1.33;;
1020;SDS011;499;42.648;23.270;2022-10-16T02:14:41;1.20;;;1.10;;
1020;SDS011;499;42.648;23.270;2022-10-16T02:17:12;1.00;;;0.90;;
1020;SDS011;499;42.648;23.270;2022-10-16T02:19:40;0.80;;;0.70;;
1020;SDS011;499;42.648;23.270;2022-10-16T02:22:09;1.07;;;0.97;;
1020;SDS011;499;42.648;23.270;2022-10-16T02:24:42;1.07;;;0.90;;
1020;SDS011;499;42.648;23.270;2022-10-16T02:27:17;1.33;;;1.23;;
1020;SDS011;499;42.648;23.270;2022-10-16T02:29:51;0.90;;;0.80;;
1020;SDS011;499;42.648;23.270;2022-10-16T02:32:24;1.13;;;1.03;;
1020;SDS011;499;42.648;23.270;2022-10-16T02:34:56;0.90;;;0.80;;
1020;SDS011;499;42.648;23.270;2022-10-16T02:37:25;1.60;;;1.13;;
1020;SDS011;499;42.648;23.270;2022-10-16T02:39:53;1.00;;;0.87;;
1020;SDS011;499;42.648;23.270;2022-10-16T02:42:27;1.30;;;1.20;;
1020;SDS011;499;42.648;23.270;2022-10-16T02:44:55;1.00;;;0.80;;
1020;SDS011;499;42.648;23.270;2022-10-16T02:47:22;0.90;;;0.70;;
1020;SDS011;499;42.648;23.270;2022-10-16T02:49:49;1.00;;;0.87;;
1020;SDS011;499;42.648;23.270;2022-10-16T02:52:16;0.80;;;0.63;;
1020;SDS011;499;42.648;23.270;2022-10-16T02:54:44;1.00;;;0.90;;
1020;SDS011;499;42.648;23.270;2022-10-16T02:57:11;1.40;;;1.00;;
1020;SDS011;499;42.648;23.270;2022-10-16T02:59:38;1.00;;;0.90;;
1020;SDS011;499;42.648;23.270;2022-10-16T03:02:06;0.90;;;0.80;;
1020;SDS011;499;42.648;23.270;2022-10-16T03:04:33;1.17;;;1.00;;
1020;SDS011;499;42.648;23.270;2022-10-16T03:07:00;0.90;;;0.80;;
1020;SDS011;499;42.648;23.270;2022-10-16T03:09:28;1.13;;;1.00;;
1020;SDS011;499;42.648;23.270;2022-10-16T03:11:55;0.80;;;0.70;;
1020;SDS011;499;42.648;23.270;2022-10-16T03:14:22;2.47;;;2.30;;
1020;SDS011;499;42.648;23.270;2022-10-16T03:16:49;1.00;;;0.90;;
1020;SDS011;499;42.648;23.270;2022-10-16T03:19:17;1.30;;;1.20;;
1020;SDS011;499;42.648;23.270;2022-10-16T03:21:45;1.43;;;1.33;;
1020;SDS011;499;42.648;23.270;2022-10-16T03:24:12;0.80;;;0.80;;
1020;SDS011;499;42.648;23.270;2022-10-16T03:26:39;0.80;;;0.70;;
1020;SDS011;499;42.648;23.270;2022-10-16T03:29:06;1.83;;;1.73;;
1020;SDS011;499;42.648;23.270;2022-10-16T03:31:33;1.33;;;1.23;;
1020;SDS011;499;42.648;23.270;2022-10-16T03:34:00;0.80;;;0.70;;
1020;SDS011;499;42.648;23.270;2022-10-16T03:36:29;1.00;;;0.90;;
1020;SDS011;499;42.648;23.270;2022-10-16T03:38:56;1.07;;;0.97;;
1020;SDS011;499;42.648;23.270;2022-10-16T03:41:23;1.23;;;1.10;;
1020;SDS011;499;42.648;23.270;2022-10-16T03:43:50;0.90;;;0.60;;
1020;SDS011;499;42.648;23.270;2022-10-16T03:46:17;1.27;;;0.70;;
1020;SDS011;499;42.648;23.270;2022-10-16T03:48:44;1.67;;;1.53;;
1020;SDS011;499;42.648;23.270;2022-10-16T03:51:11;0.80;;;0.70;;
1020;SDS011;499;42.648;23.270;2022-10-16T03:53:40;1.00;;;0.90;;
1020;SDS011;499;42.648;23.270;2022-10-16T03:56:07;1.17;;;1.00;;
1020;SDS011;499;42.648;23.270;2022-10-16T03:58:34;1.43;;;1.33;;
1020;SDS011;499;42.648;23.270;2022-10-16T04:01:01;1.30;;;1.20;;
1020;SDS011;499;42.648;23.270;2022-10-16T04:03:29;1.43;;;1.33;;
1020;SDS011;499;42.648;23.270;2022-10-16T04:05:57;1.03;;;0.80;;
1020;SDS011;499;42.648;23.270;2022-10-16T04:08:24;0.80;;;0.70;;
1020;SDS011;499;42.648;23.270;2022-10-16T04:10:52;1.00;;;0.87;;
1020;SDS011;499;42.648;23.270;2022-10-16T04:13:19;1.10;;;1.00;;
1020;SDS011;499;42.648;23.270;2022-10-16T04:15:47;1.23;;;0.97;;
1020;SDS011;499;42.648;23.270;2022-10-16T04:18:14;1.10;;;1.00;;
1020;SDS011;499;42.648;23.270;2022-10-16T04:20:41;0.80;;;0.80;;
1020;SDS011;499;42.648;23.270;2022-10-16T04:23:08;1.10;;;0.90;;
1020;SDS011;499;42.648;23.270;2022-10-16T04:25:35;0.80;;;0.70;;
1020;SDS011;499;42.648;23.270;2022-10-16T04:28:04;0.80;;;0.70;;
1020;SDS011;499;42.648;23.270;2022-10-16T04:30:31;1.00;;;0.80;;
1020;SDS011;499;42.648;23.270;2022-10-16T04:32:58;1.10;;;0.90;;
1020;SDS011;499;42.648;23.270;2022-10-16T04:35:25;1.13;;;1.03;;
1020;SDS011;499;42.648;23.270;2022-10-16T04:37:52;1.73;;;1.27;;
1020;SDS011;499;42.648;23.270;2022-10-16T04:40:19;1.37;;;1.20;;
1020;SDS011;499;42.648;23.270;2022-10-16T04:42:46;1.83;;;1.40;;
1020;SDS011;499;42.648;23.270;2022-10-16T04:45:15;1.43;;;1.23;;
1020;SDS011;499;42.648;23.270;2022-10-16T04:47:42;1.40;;;1.30;;
1020;SDS011;499;42.648;23.270;2022-10-16T04:50:09;1.10;;;1.00;;
1020;SDS011;499;42.648;23.270;2022-10-16T04:52:37;1.37;;;1.03;;
1020;SDS011;499;42.648;23.270;2022-10-16T04:55:04;1.57;;;1.07;;
1020;SDS011;499;42.648;23.270;2022-10-16T04:57:32;1.30;;;1.07;;
1020;SDS011;499;42.648;23.270;2022-10-16T04:59:59;0.90;;;0.80;;
1020;SDS011;499;42.648;23.270;2022-10-16T05:02:29;1.30;;;1.20;;
1020;SDS011;499;42.648;23.270;2022-10-16T05:04:56;1.00;;;0.87;;
1020;SDS011;499;42.648;23.270;2022-10-16T05:07:23;1.20;;;1.10;;
1020;SDS011;499;42.648;23.270;2022-10-16T05:09:51;1.00;;;0.73;;
1020;SDS011;499;42.648;23.270;2022-10-16T05:12:18;0.90;;;0.80;;
1020;SDS011;499;42.648;23.270;2022-10-16T05:14:45;1.37;;;1.20;;
1020;SDS011;499;42.648;23.270;2022-10-16T05:17:12;1.53;;;1.23;;
1020;SDS011;499;42.648;23.270;2022-10-16T05:19:41;1.37;;;1.27;;
1020;SDS011;499;42.648;23.270;2022-10-16T05:22:08;1.47;;;1.30;;
1020;SDS011;499;42.648;23.270;2022-10-16T05:24:35;2.00;;;1.43;;
1020;SDS011;499;42.648;23.270;2022-10-16T05:27:02;1.30;;;1.00;;
1020;SDS011;499;42.648;23.270;2022-10-16T05:29:29;1.00;;;0.80;;
1020;SDS011;499;42.648;23.270;2022-10-16T05:31:57;2.13;;;2.03;;
1020;SDS011;499;42.648;23.270;2022-10-16T05:34:24;1.77;;;1.67;;
1020;SDS011;499;42.648;23.270;2022-10-16T05:36:52;2.13;;;1.70;;
1020;SDS011;499;42.648;23.270;2022-10-16T05:39:19;2.07;;;1.47;;
1020;SDS011;499;42.648;23.270;2022-10-16T05:41:49;1.27;;;1.17;;
1020;SDS011;499;42.648;23.270;2022-10-16T05:44:17;2.50;;;2.30;;
1020;SDS011;499;42.648;23.270;2022-10-16T05:46:45;1.43;;;1.23;;
1020;SDS011;499;42.648;23.270;2022-10-16T05:49:13;0.80;;;0.80;;
1020;SDS011;499;42.648;23.270;2022-10-16T05:51:40;3.23;;;2.20;;
1020;SDS011;499;42.648;23.270;2022-10-16T05:54:08;1.37;;;1.27;;
1020;SDS011;499;42.648;23.270;2022-10-16T05:56:36;1.57;;;1.33;;
1020;SDS011;499;42.648;23.270;2022-10-16T05:59:03;2.03;;;1.63;;
1020;SDS011;499;42.648;23.270;2022-10-16T06:01:30;1.37;;;1.23;;
1020;SDS011;499;42.648;23.270;2022-10-16T06:03:58;2.20;;;2.00;;
1020;SDS011;499;42.648;23.270;2022-10-16T06:06:26;2.20;;;2.00;;
1020;SDS011;499;42.648;23.270;2022-10-16T06:08:55;2.00;;;1.53;;
1020;SDS011;499;42.648;23.270;2022-10-16T06:11:26;2.33;;;2.13;;
1020;SDS011;499;42.648;23.270;2022-10-16T06:13:56;1.20;;;1.03;;
1020;SDS011;499;42.648;23.270;2022-10-16T06:16:25;1.23;;;0.93;;
1020;SDS011;499;42.648;23.270;2022-10-16T06:18:53;1.00;;;0.90;;
1020;SDS011;499;42.648;23.270;2022-10-16T06:21:22;4.17;;;3.60;;
1020;SDS011;499;42.648;23.270;2022-10-16T06:23:51;3.80;;;3.37;;
1020;SDS011;499;42.648;23.270;2022-10-16T06:26:19;4.27;;;3.87;;
1020;SDS011;499;42.648;23.270;2022-10-16T06:28:49;3.50;;;3.20;;
1020;SDS011;499;42.648;23.270;2022-10-16T06:31:16;4.27;;;3.70;;
1020;SDS011;499;42.648;23.270;2022-10-16T06:33:44;1.83;;;1.60;;
1020;SDS011;499;42.648;23.270;2022-10-16T06:36:12;2.80;;;2.50;;
1020;SDS011;499;42.648;23.270;2022-10-16T06:38:41;4.40;;;3.87;;
1020;SDS011;499;42.648;23.270;2022-10-16T06:41:09;7.30;;;5.10;;
1020;SDS011;499;42.648;23.270;2022-10-16T06:43:39;4.00;;;3.27;;
1020;SDS011;499;42.648;23.270;2022-10-16T06:46:09;3.20;;;2.90;;
1020;SDS011;499;42.648;23.270;2022-10-16T06:48:37;3.20;;;2.50;;
1020;SDS011;499;42.648;23.270;2022-10-16T06:51:05;1.33;;;1.23;;
1020;SDS011;499;42.648;23.270;2022-10-16T06:53:35;1.53;;;1.43;;
1020;SDS011;499;42.648;23.270;2022-10-16T06:56:06;1.97;;;1.57;;
1020;SDS011;499;42.648;23.270;2022-10-16T06:58:34;2.13;;;1.83;;
1020;SDS011;499;42.648;23.270;2022-10-16T07:01:02;3.90;;;2.57;;
1020;SDS011;499;42.648;23.270;2022-10-16T07:03:30;3.03;;;2.53;;
1020;SDS011;499;42.648;23.270;2022-10-16T07:06:00;4.43;;;4.00;;
1020;SDS011;499;42.648;23.270;2022-10-16T07:08:30;4.03;;;2.90;;
1020;SDS011;499;42.648;23.270;2022-10-16T07:10:59;2.80;;;1.40;;
1020;SDS011;499;42.648;23.270;2022-10-16T07:13:27;4.13;;;3.53;;
1020;SDS011;499;42.648;23.270;2022-10-16T07:15:54;5.37;;;4.87;;
1020;SDS011;499;42.648;23.270;2022-10-16T07:18:21;6.53;;;4.33;;
1020;SDS011;499;42.648;23.270;2022-10-16T07:20:52;5.27;;;4.20;;
1020;SDS011;499;42.648;23.270;2022-10-16T07:23:20;4.33;;;3.90;;
1020;SDS011;499;42.648;23.270;2022-10-16T07:25:53;3.90;;;3.50;;
1020;SDS011;499;42.648;23.270;2022-10-16T07:28:20;3.80;;;3.33;;
1020;SDS011;499;42.648;23.270;2022-10-16T07:30:48;5.70;;;4.83;;
1020;SDS011;499;42.648;23.270;2022-10-16T07:33:15;4.40;;;4.00;;
1020;SDS011;499;42.648;23.270;2022-10-16T07:35:49;4.30;;;3.60;;
1020;SDS011;499;42.648;23.270;2022-10-16T07:38:18;3.27;;;2.97;;
1020;SDS011;499;42.648;23.270;2022-10-16T07:40:47;3.80;;;3.43;;
1020;SDS011;499;42.648;23.270;2022-10-16T07:43:14;3.37;;;2.80;;
1020;SDS011;499;42.648;23.270;2022-10-16T07:45:47;3.97;;;3.47;;
1020;SDS011;499;42.648;23.270;2022-10-16T07:48:15;3.40;;;2.50;;
1020;SDS011;499;42.648;23.270;2022-10-16T07:50:43;4.17;;;3.20;;
1020;SDS011;499;42.648;23.270;2022-10-16T07:53:11;3.70;;;3.07;;
1020;SDS011;499;42.648;23.270;2022-10-16T07:55:39;3.60;;;2.53;;
1020;SDS011;499;42.648;23.270;2022-10-16T07:58:07;2.90;;;2.60;;
1020;SDS011;499;42.648;23.270;2022-10-16T08:00:35;2.50;;;2.20;;
1020;SDS011;499;42.648;23.270;2022-10-16T08:03:02;3.00;;;2.47;;
1020;SDS011;499;42.648;23.270;2022-10-16T08:05:30;2.60;;;2.20;;
1020;SDS011;499;42.648;23.270;2022-10-16T08:07:58;2.63;;;2.43;;
1020;SDS011;499;42.648;23.270;2022-10-16T08:10:26;4.37;;;3.30;;
1020;SDS011;499;42.648;23.270;2022-10-16T08:12:55;2.50;;;2.27;;
1020;SDS011;499;42.648;23.270;2022-10-16T08:15:22;4.00;;;2.77;;
1020;SDS011;499;42.648;23.270;2022-10-16T08:17:56;4.33;;;3.17;;
1020;SDS011;499;42.648;23.270;2022-10-16T08:20:25;3.17;;;2.50;;
1020;SDS011;499;42.648;23.270;2022-10-16T08:22:52;2.83;;;2.47;;
1020;SDS011;499;42.648;23.270;2022-10-16T08:25:20;2.97;;;2.67;;
1020;SDS011;499;42.648;23.270;2022-10-16T08:27:48;3.07;;;2.00;;
1020;SDS011;499;42.648;23.270;2022-10-16T08:30:17;5.70;;;3.37;;
1020;SDS011;499;42.648;23.270;2022-10-16T08:32:45;3.90;;;3.50;;
1020;SDS011;499;42.648;23.270;2022-10-16T08:35:13;2.77;;;2.07;;
1020;SDS011;499;42.648;23.270;2022-10-16T08:37:41;3.30;;;2.60;;
1020;SDS011;499;42.648;23.270;2022-10-16T08:40:14;2.40;;;2.20;;
1020;SDS011;499;42.648;23.270;2022-10-16T08:42:47;4.23;;;2.97;;
1020;SDS011;499;42.648;23.270;2022-10-16T08:45:34;2.10;;;1.90;;
1020;SDS011;499;42.648;23.270;2022-10-16T08:48:14;3.97;;;2.93;;
1020;SDS011;499;42.648;23.270;2022-10-16T08:50:46;2.60;;;2.27;;
1020;SDS011;499;42.648;23.270;2022-10-16T08:53:16;3.07;;;2.77;;
1020;SDS011;499;42.648;23.270;2022-10-16T08:55:49;3.90;;;2.73;;
1020;SDS011;499;42.648;23.270;2022-10-16T08:58:18;2.50;;;2.30;;
1020;SDS011;499;42.648;23.270;2022-10-16T09:00:48;2.43;;;2.20;;
1020;SDS011;499;42.648;23.270;2022-10-16T09:03:24;3.13;;;2.47;;
1020;SDS011;499;42.648;23.270;2022-10-16T09:06:07;2.80;;;2.07;;
1020;SDS011;499;42.648;23.270;2022-10-16T09:08:43;2.43;;;2.20;;
1020;SDS011;499;42.648;23.270;2022-10-16T09:11:21;2.37;;;1.40;;
1020;SDS011;499;42.648;23.270;2022-10-16T09:13:56;2.17;;;1.83;;
1020;SDS011;499;42.648;23.270;2022-10-16T09:16:32;2.37;;;1.90;;
1020;SDS011;499;42.648;23.270;2022-10-16T09:19:04;1.80;;;1.50;;
1020;SDS011;499;42.648;23.270;2022-10-16T09:21:39;3.27;;;2.27;;
1020;SDS011;499;42.648;23.270;2022-10-16T09:24:10;1.83;;;1.57;;
1020;SDS011;499;42.648;23.270;2022-10-16T09:26:39;2.30;;;1.60;;
1020;SDS011;499;42.648;23.270;2022-10-16T09:29:08;1.80;;;1.33;;
1020;SDS011;499;42.648;23.270;2022-10-16T09:31:39;1.93;;;1.50;;
1020;SDS011;499;42.648;23.270;2022-10-16T09:34:10;2.00;;;1.37;;
1020;SDS011;499;42.648;23.270;2022-10-16T09:36:47;1.90;;;1.33;;
1020;SDS011;499;42.648;23.270;2022-10-16T09:39:14;1.67;;;1.30;;
1020;SDS011;499;42.648;23.270;2022-10-16T09:41:42;2.10;;;1.23;;
1020;SDS011;499;42.648;23.270;2022-10-16T09:44:17;1.90;;;1.33;;
1020;SDS011;499;42.648;23.270;2022-10-16T09:46:49;1.63;;;1.03;;
1020;SDS011;499;42.648;23.270;2022-10-16T09:49:26;1.80;;;1.30;;
1020;SDS011;499;42.648;23.270;2022-10-16T09:52:02;1.80;;;1.60;;
1020;SDS011;499;42.648;23.270;2022-10-16T09:54:30;1.80;;;1.50;;
1020;SDS011;499;42.648;23.270;2022-10-16T09:57:04;1.77;;;1.40;;
1020;SDS011;499;42.648;23.270;2022-10-16T09:59:32;1.77;;;1.03;;
1020;SDS011;499;42.648;23.270;2022-10-16T10:02:03;2.13;;;1.10;;
1020;SDS011;499;42.648;23.270;2022-10-16T10:04:40;1.90;;;1.20;;
1020;SDS011;499;42.648;23.270;2022-10-16T10:07:16;1.67;;;1.50;;
1020;SDS011;499;42.648;23.270;2022-10-16T10:09:45;1.77;;;1.53;;
1020;SDS011;499;42.648;23.270;2022-10-16T10:12:19;1.80;;;1.30;;
1020;SDS011;499;42.648;23.270;2022-10-16T10:14:48;2.00;;;1.33;;
1020;SDS011;499;42.648;23.270;2022-10-16T10:17:20;1.60;;;1.17;;
1020;SDS011;499;42.648;23.270;2022-10-16T10:19:50;1.40;;;1.10;;
1020;SDS011;499;42.648;23.270;2022-10-16T10:22:23;1.37;;;0.97;;
1020;SDS011;499;42.648;23.270;2022-10-16T10:25:15;1.60;;;1.40;;
1020;SDS011;499;42.648;23.270;2022-10-16T10:27:52;2.43;;;1.20;;
1020;SDS011;499;42.648;23.270;2022-10-16T10:30:40;2.10;;;1.17;;
1020;SDS011;499;42.648;23.270;2022-10-16T10:33:20;1.50;;;1.10;;
1020;SDS011;499;42.648;23.270;2022-10-16T10:35:54;1.60;;;1.50;;
1020;SDS011;499;42.648;23.270;2022-10-16T10:38:34;1.43;;;1.13;;
1020;SDS011;499;42.648;23.270;2022-10-16T10:41:11;2.00;;;1.67;;
1020;SDS011;499;42.648;23.270;2022-10-16T10:44:01;1.60;;;1.00;;
1020;SDS011;499;42.648;23.270;2022-10-16T10:46:34;1.30;;;0.90;;
1020;SDS011;499;42.648;23.270;2022-10-16T10:52:11;2.03;;;1.50;;
1020;SDS011;499;42.648;23.270;2022-10-16T10:54:53;1.53;;;1.30;;
1020;SDS011;499;42.648;23.270;2022-10-16T10:57:27;1.70;;;1.10;;
1020;SDS011;499;42.648;23.270;2022-10-16T10:59:59;1.70;;;1.33;;
1020;SDS011;499;42.648;23.270;2022-10-16T11:02:38;1.67;;;1.17;;
1020;SDS011;499;42.648;23.270;2022-10-16T11:05:19;1.57;;;0.97;;
1020;SDS011;499;42.648;23.270;2022-10-16T11:07:57;1.97;;;1.20;;
1020;SDS011;499;42.648;23.270;2022-10-16T11:10:27;1.60;;;1.20;;
1020;SDS011;499;42.648;23.270;2022-10-16T11:13:10;2.23;;;1.37;;
1020;SDS011;499;42.648;23.270;2022-10-16T11:15:46;1.43;;;1.10;;
1020;SDS011;499;42.648;23.270;2022-10-16T11:18:18;2.27;;;1.50;;
1020;SDS011;499;42.648;23.270;2022-10-16T11:20:51;1.40;;;1.10;;
1020;SDS011;499;42.648;23.270;2022-10-16T11:23:22;1.60;;;0.80;;
1020;SDS011;499;42.648;23.270;2022-10-16T11:25:53;1.40;;;1.00;;
1020;SDS011;499;42.648;23.270;2022-10-16T11:28:24;2.07;;;1.30;;
1020;SDS011;499;42.648;23.270;2022-10-16T11:30:57;1.63;;;1.10;;
1020;SDS011;499;42.648;23.270;2022-10-16T11:33:28;1.63;;;1.00;;
1020;SDS011;499;42.648;23.270;2022-10-16T11:36:02;1.50;;;1.10;;
1020;SDS011;499;42.648;23.270;2022-10-16T11:38:36;1.53;;;0.87;;
1020;SDS011;499;42.648;23.270;2022-10-16T11:41:10;1.30;;;1.00;;
1020;SDS011;499;42.648;23.270;2022-10-16T11:43:46;1.93;;;1.37;;
1020;SDS011;499;42.648;23.270;2022-10-16T11:46:20;1.20;;;0.80;;
1020;SDS011;499;42.648;23.270;2022-10-16T11:48:51;2.20;;;1.00;;
1020;SDS011;499;42.648;23.270;2022-10-16T11:51:25;1.40;;;0.90;;
1020;SDS011;499;42.648;23.270;2022-10-16T11:53:59;1.50;;;1.00;;
1020;SDS011;499;42.648;23.270;2022-10-16T11:56:31;1.33;;;0.73;;
1020;SDS011;499;42.648;23.270;2022-10-16T11:59:04;1.20;;;0.63;;
1020;SDS011;499;42.648;23.270;2022-10-16T12:01:37;2.03;;;1.40;;
1020;SDS011;499;42.648;23.270;2022-10-16T12:04:16;1.50;;;0.77;;
1020;SDS011;499;42.648;23.270;2022-10-16T12:06:48;1.20;;;0.77;;
1020;SDS011;499;42.648;23.270;2022-10-16T12:09:21;1.53;;;0.93;;
1020;SDS011;499;42.648;23.270;2022-10-16T12:11:54;1.30;;;0.80;;
1020;SDS011;499;42.648;23.270;2022-10-16T12:14:35;1.10;;;0.70;;
1020;SDS011;499;42.648;23.270;2022-10-16T12:17:03;1.37;;;0.90;;
1020;SDS011;499;42.648;23.270;2022-10-16T12:19:56;1.37;;;0.90;;
1020;SDS011;499;42.648;23.270;2022-10-16T12:22:25;1.60;;;0.97;;
1020;SDS011;499;42.648;23.270;2022-10-16T12:24:55;1.50;;;1.27;;
1020;SDS011;499;42.648;23.270;2022-10-16T12:27:24;1.30;;;0.80;;
1020;SDS011;499;42.648;23.270;2022-10-16T12:29:55;1.33;;;0.80;;
1020;SDS011;499;42.648;23.270;2022-10-16T12:32:26;2.07;;;1.03;;
1020;SDS011;499;42.648;23.270;2022-10-16T12:34:56;1.70;;;1.03;;
1020;SDS011;499;42.648;23.270;2022-10-16T12:37:26;1.10;;;0.80;;
1020;SDS011;499;42.648;23.270;2022-10-16T12:39:58;1.40;;;0.80;;
1020;SDS011;499;42.648;23.270;2022-10-16T12:42:34;1.53;;;1.13;;
1020;SDS011;499;42.648;23.270;2022-10-16T12:45:02;1.33;;;0.97;;
1020;SDS011;499;42.648;23.270;2022-10-16T12:47:51;1.40;;;0.90;;
1020;SDS011;499;42.648;23.270;2022-10-16T12:50:23;1.60;;;1.30;;
1020;SDS011;499;42.648;23.270;2022-10-16T12:52:53;1.97;;;1.10;;
1020;SDS011;499;42.648;23.270;2022-10-16T12:55:21;1.30;;;0.83;;
1020;SDS011;499;42.648;23.270;2022-10-16T12:57:56;1.20;;;0.87;;
1020;SDS011;499;42.648;23.270;2022-10-16T13:00:32;1.30;;;0.60;;
1020;SDS011;499;42.648;23.270;2022-10-16T13:03:19;1.53;;;0.90;;
1020;SDS011;499;42.648;23.270;2022-10-16T13:06:25;1.30;;;0.90;;
1020;SDS011;499;42.648;23.270;2022-10-16T13:12:09;1.40;;;0.93;;
1020;SDS011;499;42.648;23.270;2022-10-16T13:15:04;1.50;;;0.90;;
1020;SDS011;499;42.648;23.270;2022-10-16T13:17:46;1.30;;;0.80;;
1020;SDS011;499;42.648;23.270;2022-10-16T13:20:20;3.40;;;2.20;;
1020;SDS011;499;42.648;23.270;2022-10-16T13:22:55;1.40;;;1.00;;
1020;SDS011;499;42.648;23.270;2022-10-16T13:25:30;1.30;;;0.90;;
1020;SDS011;499;42.648;23.270;2022-10-16T13:28:08;2.43;;;1.10;;
1020;SDS011;499;42.648;23.270;2022-10-16T13:30:38;1.40;;;0.90;;
1020;SDS011;499;42.648;23.270;2022-10-16T13:33:12;1.33;;;0.83;;
1020;SDS011;499;42.648;23.270;2022-10-16T13:35:47;1.10;;;0.70;;
1020;SDS011;499;42.648;23.270;2022-10-16T13:38:18;1.23;;;0.70;;
1020;SDS011;499;42.648;23.270;2022-10-16T13:40:50;2.10;;;1.33;;
1020;SDS011;499;42.648;23.270;2022-10-16T13:43:21;1.30;;;0.70;;
1020;SDS011;499;42.648;23.270;2022-10-16T13:45:52;2.23;;;1.43;;
1020;SDS011;499;42.648;23.270;2022-10-16T13:48:20;1.77;;;1.17;;
1020;SDS011;499;42.648;23.270;2022-10-16T13:50:57;2.23;;;1.60;;
1020;SDS011;499;42.648;23.270;2022-10-16T13:53:29;1.83;;;1.10;;
1020;SDS011;499;42.648;23.270;2022-10-16T13:55:58;1.60;;;1.07;;
1020;SDS011;499;42.648;23.270;2022-10-16T13:58:27;1.30;;;0.90;;
1020;SDS011;499;42.648;23.270;2022-10-16T14:00:56;1.90;;;1.30;;
1020;SDS011;499;42.648;23.270;2022-10-16T14:03:24;2.07;;;1.23;;
1020;SDS011;499;42.648;23.270;2022-10-16T14:05:52;2.03;;;1.67;;
1020;SDS011;499;42.648;23.270;2022-10-16T14:08:22;1.87;;;1.63;;
1020;SDS011;499;42.648;23.270;2022-10-16T14:10:51;1.50;;;0.87;;
1020;SDS011;499;42.648;23.270;2022-10-16T14:13:22;1.97;;;0.97;;
1020;SDS011;499;42.648;23.270;2022-10-16T14:15:56;1.50;;;1.30;;
1020;SDS011;499;42.648;23.270;2022-10-16T14:18:26;1.23;;;1.00;;
1020;SDS011;499;42.648;23.270;2022-10-16T14:20:54;1.70;;;1.00;;
1020;SDS011;499;42.648;23.270;2022-10-16T14:23:30;1.43;;;1.07;;
1020;SDS011;499;42.648;23.270;2022-10-16T14:26:12;1.30;;;0.80;;
1020;SDS011;499;42.648;23.270;2022-10-16T14:28:44;2.17;;;1.30;;
1020;SDS011;499;42.648;23.270;2022-10-16T14:31:29;1.57;;;0.90;;
1020;SDS011;499;42.648;23.270;2022-10-16T14:33:57;1.67;;;1.30;;
1020;SDS011;499;42.648;23.270;2022-10-16T14:36:25;2.27;;;1.23;;
1020;SDS011;499;42.648;23.270;2022-10-16T14:38:58;1.60;;;1.17;;
1020;SDS011;499;42.648;23.270;2022-10-16T14:41:28;1.70;;;1.10;;
1020;SDS011;499;42.648;23.270;2022-10-16T14:44:01;1.33;;;1.00;;
1020;SDS011;499;42.648;23.270;2022-10-16T14:46:31;2.40;;;1.83;;
1020;SDS011;499;42.648;23.270;2022-10-16T14:49:02;1.90;;;1.60;;
1020;SDS011;499;42.648;23.270;2022-10-16T14:51:37;1.57;;;1.03;;
1020;SDS011;499;42.648;23.270;2022-10-16T14:54:07;1.60;;;1.10;;
1020;SDS011;499;42.648;23.270;2022-10-16T14:56:35;2.00;;;1.77;;
1020;SDS011;499;42.648;23.270;2022-10-16T14:59:16;1.90;;;1.57;;
1020;SDS011;499;42.648;23.270;2022-10-16T15:01:45;5.50;;;1.70;;
1020;SDS011;499;42.648;23.270;2022-10-16T15:04:13;2.83;;;1.40;;
1020;SDS011;499;42.648;23.270;2022-10-16T15:06:41;2.17;;;1.87;;
1020;SDS011;499;42.648;23.270;2022-10-16T15:09:08;3.87;;;2.67;;
1020;SDS011;499;42.648;23.270;2022-10-16T15:11:35;2.93;;;1.80;;
1020;SDS011;499;42.648;23.270;2022-10-16T15:14:03;1.87;;;1.50;;
1020;SDS011;499;42.648;23.270;2022-10-16T15:16:32;2.30;;;1.60;;
1020;SDS011;499;42.648;23.270;2022-10-16T15:18:59;1.83;;;1.50;;
1020;SDS011;499;42.648;23.270;2022-10-16T15:21:27;2.13;;;1.73;;
1020;SDS011;499;42.648;23.270;2022-10-16T15:23:55;2.00;;;1.60;;
1020;SDS011;499;42.648;23.270;2022-10-16T15:26:23;2.20;;;1.80;;
1020;SDS011;499;42.648;23.270;2022-10-16T15:28:51;3.20;;;1.80;;
1020;SDS011;499;42.648;23.270;2022-10-16T15:31:18;2.10;;;1.50;;
1020;SDS011;499;42.648;23.270;2022-10-16T15:33:48;2.83;;;2.00;;
1020;SDS011;499;42.648;23.270;2022-10-16T15:36:24;2.30;;;1.67;;
1020;SDS011;499;42.648;23.270;2022-10-16T15:38:52;2.03;;;1.50;;
1020;SDS011;499;42.648;23.270;2022-10-16T15:41:19;3.03;;;1.97;;
1020;SDS011;499;42.648;23.270;2022-10-16T15:43:47;2.53;;;2.00;;